Terminal Aerodrome Forecast
Issued by NWS Pueblo, CO

Home | Current Version | Previous Version | Text Only | Print | Product List | Glossary On
Versions: 1 2 3 4 5 6 7 8 9 10 11 12 13 14 15
000
FTUS45 KPUB 191448 AAB
TAFPUB
TAF AMD
KPUB 191448Z 1915/2012 VRB04KT P6SM SCT130 SCT200
     FM191800 15007KT P6SM BKN130 BKN200
     FM192100 12008KT P6SM SCT130 BKN200
     FM200200 30013KT P6SM SCT100 BKN150=

USA.gov is the U.S. government's official web portal to all federal, state and local government web resources and services.